createdAt,value
2019-02-14T00:01:54.126Z,64.94
2019-02-14T00:06:01.766Z,64.98
2019-02-14T00:10:09.667Z,64.96
2019-02-14T00:14:18.208Z,65.02
2019-02-14T00:18:25.902Z,65.08
2019-02-14T00:22:34.037Z,65.33
2019-02-14T00:26:42.144Z,65.53
2019-02-14T00:30:49.955Z,65.76
2019-02-14T00:34:58.264Z,65.97
2019-02-14T00:39:07.216Z,66.19
2019-02-14T00:43:16.552Z,66.19
2019-02-14T00:47:24.707Z,66.20
2019-02-14T00:51:33.596Z,66.38
2019-02-14T00:55:41.322Z,66.37
2019-02-14T00:59:49.527Z,66.56
2019-02-14T01:03:57.661Z,66.46
2019-02-14T01:08:05.363Z,66.47
2019-02-14T01:12:14.189Z,66.31
2019-02-14T01:16:22.705Z,66.34
2019-02-14T01:20:30.415Z,65.98
2019-02-14T01:24:38.951Z,65.89
2019-02-14T01:28:46.755Z,65.84
2019-02-14T01:32:54.470Z,65.73
2019-02-14T01:37:02.384Z,65.54
2019-02-14T01:41:11.213Z,65.56
2019-02-14T01:45:19.352Z,65.50
2019-02-14T01:49:27.868Z,65.50
2019-02-14T01:53:35.566Z,65.53
2019-02-14T01:57:44.455Z,65.43
2019-02-14T02:01:52.307Z,65.42
2019-02-14T02:06:00.014Z,65.20
2019-02-14T02:10:08.883Z,65.19
2019-02-14T02:14:17.587Z,65.01
2019-02-14T02:18:25.483Z,64.99
2019-02-14T02:22:33.318Z,64.60
2019-02-14T02:26:41.374Z,64.22
2019-02-14T02:30:49.236Z,64.05
2019-02-14T02:34:57.549Z,63.99
2019-02-14T02:39:07.223Z,64.05
2019-02-14T02:43:14.903Z,63.85
2019-02-14T02:47:23.859Z,63.80
2019-02-14T02:51:31.770Z,63.94
2019-02-14T02:55:39.308Z,64.29
2019-02-14T02:59:47.408Z,64.29
2019-02-14T03:03:55.108Z,64.16
2019-02-14T03:08:02.941Z,64.27
2019-02-14T03:12:11.111Z,64.85
2019-02-14T03:16:18.812Z,64.73
2019-02-14T03:20:27.055Z,64.50
2019-02-14T03:24:35.189Z,65.27
2019-02-14T03:28:42.873Z,65.97
2019-02-14T03:32:51.304Z,66.23
2019-02-14T03:36:59.629Z,66.04
2019-02-14T03:41:07.437Z,66.27
2019-02-14T03:45:16.813Z,65.78
2019-02-14T03:49:24.632Z,65.95
2019-02-14T03:53:32.412Z,66.47
2019-02-14T03:57:40.329Z,67.08
2019-02-14T04:01:48.538Z,66.84
2019-02-14T04:05:56.447Z,66.89
2019-02-14T04:10:05.814Z,67.03
2019-02-14T04:14:13.386Z,66.99
2019-02-14T04:18:21.032Z,67.15
2019-02-14T04:22:29.132Z,65.96
2019-02-14T04:26:36.770Z,66.74
2019-02-14T04:30:44.880Z,66.03
2019-02-14T04:34:53.150Z,65.54
2019-02-14T04:39:00.976Z,65.58
2019-02-14T04:43:10.519Z,65.74
2019-02-14T04:47:18.825Z,65.90
2019-02-14T04:51:26.574Z,66.29
2019-02-14T04:55:34.784Z,66.30
2019-02-14T04:59:42.710Z,66.71
2019-02-14T05:03:50.595Z,65.60
2019-02-14T05:07:58.513Z,65.84
2019-02-14T05:12:06.283Z,65.91
2019-02-14T05:16:14.024Z,65.96
2019-02-14T05:20:22.138Z,65.96
2019-02-14T05:24:30.062Z,65.87
2019-02-14T05:28:37.855Z,65.94
2019-02-14T05:32:45.846Z,65.61
2019-02-14T05:36:55.309Z,65.52
2019-02-14T05:41:03.145Z,65.98
2019-02-14T05:45:11.578Z,65.49
2019-02-14T05:49:19.270Z,65.31
2019-02-14T05:53:26.828Z,64.65
2019-02-14T05:57:34.999Z,63.88
2019-02-14T06:01:42.500Z,63.53
2019-02-14T06:05:51.331Z,62.66
2019-02-14T06:09:59.370Z,62.10
2019-02-14T06:14:06.960Z,61.74
2019-02-14T06:18:14.776Z,61.67
2019-02-14T06:22:24.068Z,61.80
2019-02-14T06:26:31.810Z,61.44
2019-02-14T06:30:39.726Z,61.13
2019-02-14T06:34:47.532Z,60.60
2019-02-14T06:38:55.142Z,60.86
2019-02-14T06:43:03.455Z,60.11
2019-02-14T06:47:11.276Z,59.00
2019-02-14T06:51:18.894Z,58.83
2019-02-14T06:55:26.627Z,57.49
2019-02-14T06:59:36.139Z,55.25
2019-02-14T07:03:43.940Z,54.96
2019-02-14T07:07:52.958Z,56.62
2019-02-14T07:12:01.314Z,57.26
2019-02-14T07:16:09.684Z,57.52
2019-02-14T07:20:17.647Z,57.68
2019-02-14T07:24:25.351Z,58.40
2019-02-14T07:28:34.453Z,58.14
2019-02-14T07:32:43.238Z,58.19
2019-02-14T07:36:51.239Z,57.79
2019-02-14T07:40:59.758Z,57.58
2019-02-14T07:45:11.163Z,57.19
2019-02-14T07:49:19.881Z,57.50
2019-02-14T07:53:27.594Z,56.04
2019-02-14T07:57:35.544Z,56.38
2019-02-14T08:01:43.203Z,56.05
2019-02-14T08:05:51.062Z,56.01
2019-02-14T08:09:59.188Z,55.36
2019-02-14T08:14:07.890Z,55.32
2019-02-14T08:18:15.611Z,55.20
2019-02-14T08:22:23.387Z,54.27
2019-02-14T08:26:31.307Z,54.10
2019-02-14T08:30:39.016Z,52.62
2019-02-14T08:34:46.937Z,52.38
2019-02-14T08:38:55.129Z,52.19
2019-02-14T08:43:02.932Z,51.26
2019-02-14T08:47:10.666Z,51.81
2019-02-14T08:51:18.627Z,51.04
2019-02-14T08:55:26.378Z,50.22
2019-02-14T08:59:34.292Z,50.27
2019-02-14T09:03:42.403Z,49.49
2019-02-14T09:07:54.594Z,49.17
2019-02-14T09:12:00.565Z,49.46
2019-02-14T09:16:08.293Z,48.82
2019-02-14T09:20:16.530Z,49.16
2019-02-14T09:24:24.125Z,49.04
2019-02-14T09:28:31.832Z,48.20
2019-02-14T09:32:40.135Z,47.69
2019-02-14T09:36:47.778Z,47.57
2019-02-14T09:40:56.893Z,47.48
2019-02-14T09:45:05.651Z,47.49
2019-02-14T09:49:13.348Z,47.92
2019-02-14T09:53:21.158Z,48.50
2019-02-14T09:57:29.311Z,49.46
2019-02-14T10:01:37.065Z,49.74
2019-02-14T10:05:44.995Z,50.73
2019-02-14T10:09:53.212Z,49.85
2019-02-14T10:14:00.929Z,50.33
2019-02-14T10:18:08.628Z,50.07
2019-02-14T10:22:16.742Z,49.57
2019-02-14T10:26:24.439Z,50.13
2019-02-14T10:30:32.577Z,49.18
2019-02-14T10:34:40.295Z,49.66
2019-02-14T10:38:47.969Z,48.46
2019-02-14T10:42:55.806Z,48.54
2019-02-14T10:47:03.597Z,49.54
2019-02-14T10:51:11.915Z,49.22
2019-02-14T10:55:19.959Z,50.32
2019-02-14T10:59:27.475Z,49.15
2019-02-14T11:03:35.442Z,49.69
2019-02-14T11:07:43.664Z,49.05
2019-02-14T11:11:52.395Z,48.98
2019-02-14T11:16:00.215Z,49.80
2019-02-14T11:20:09.269Z,49.79
2019-02-14T11:24:16.867Z,50.39
2019-02-14T11:28:24.680Z,49.30
2019-02-14T11:32:32.496Z,49.68
2019-02-14T11:36:40.180Z,49.67
2019-02-14T11:40:48.318Z,49.32
2019-02-14T11:44:55.910Z,49.22
2019-02-14T11:49:03.509Z,48.98
2019-02-14T11:53:14.154Z,48.87
2019-02-14T11:57:22.680Z,48.53
2019-02-14T12:01:30.625Z,48.46
2019-02-14T12:05:38.645Z,48.09
2019-02-14T12:09:46.364Z,47.87
2019-02-14T12:13:54.718Z,48.15
2019-02-14T12:18:02.889Z,48.86
2019-02-14T12:22:10.501Z,48.88
2019-02-14T12:26:18.416Z,48.28
2019-02-14T12:30:26.743Z,48.63
2019-02-14T12:34:34.363Z,49.38
2019-02-14T12:38:42.268Z,49.13
2019-02-14T12:42:49.970Z,48.60
2019-02-14T12:46:57.667Z,49.16
2019-02-14T12:51:05.472Z,48.85
2019-02-14T12:55:13.170Z,49.35
2019-02-14T12:59:21.716Z,49.36
2019-02-14T13:03:29.936Z,50.50
2019-02-14T13:07:37.642Z,50.54
2019-02-14T13:11:45.469Z,51.61
2019-02-14T13:15:53.869Z,52.51
2019-02-14T13:20:01.289Z,53.14
2019-02-14T13:24:09.398Z,53.74
2019-02-14T13:28:17.296Z,54.43
2019-02-14T13:32:26.046Z,55.38
2019-02-14T13:36:34.251Z,54.63
2019-02-14T13:40:41.890Z,54.97
2019-02-14T13:44:49.714Z,54.37
2019-02-14T13:48:58.316Z,54.06
2019-02-14T13:53:06.010Z,53.30
2019-02-14T13:57:14.069Z,54.11
2019-02-14T14:01:22.757Z,56.23
2019-02-14T14:05:30.532Z,57.15
2019-02-14T14:09:39.070Z,58.31
2019-02-14T14:13:46.914Z,59.52
2019-02-14T14:17:54.720Z,60.28
2019-02-14T14:22:02.684Z,62.18
2019-02-14T14:26:10.837Z,64.34
2019-02-14T14:30:18.579Z,66.23
2019-02-14T14:34:26.697Z,68.00
2019-02-14T14:38:34.578Z,69.42
2019-02-14T14:43:04.072Z,69.96
2019-02-14T14:47:20.540Z,70.64
2019-02-14T14:51:30.013Z,71.21
2019-02-14T14:55:37.769Z,71.64
2019-02-14T14:59:45.697Z,71.93
2019-02-14T15:03:53.482Z,72.73
2019-02-14T15:08:01.828Z,72.77
2019-02-14T15:12:09.613Z,72.68
2019-02-14T15:16:17.425Z,72.94
2019-02-14T15:20:25.169Z,72.99
2019-02-14T15:24:33.067Z,72.90
2019-02-14T15:28:40.784Z,73.04
2019-02-14T15:32:48.668Z,72.70
2019-02-14T15:36:56.622Z,73.32
2019-02-14T15:41:05.308Z,72.97
2019-02-14T15:45:13.677Z,72.97
2019-02-14T15:49:23.060Z,72.88
2019-02-14T15:53:31.955Z,72.79
2019-02-14T15:57:42.246Z,72.78
2019-02-14T16:01:50.136Z,72.61
2019-02-14T16:05:57.950Z,72.09
2019-02-14T16:10:06.024Z,72.12
2019-02-14T16:14:13.732Z,71.48
2019-02-14T16:18:23.208Z,71.08
2019-02-14T16:22:31.997Z,70.99
2019-02-14T16:26:39.734Z,70.96
2019-02-14T16:30:47.711Z,70.59
2019-02-14T16:34:55.760Z,70.43
2019-02-14T16:39:05.042Z,70.80
2019-02-14T16:43:13.237Z,70.52
2019-02-14T16:47:21.536Z,70.64
2019-02-14T16:51:29.252Z,70.14
2019-02-14T16:55:37.386Z,70.03
2019-02-14T16:59:45.589Z,69.35
2019-02-14T17:03:53.187Z,69.52
2019-02-14T17:08:01.615Z,70.36
2019-02-14T17:12:09.937Z,69.62
2019-02-14T17:16:18.568Z,70.16
2019-02-14T17:20:26.831Z,69.76
2019-02-14T17:24:34.403Z,69.67
2019-02-14T17:28:42.725Z,69.65
2019-02-14T17:32:51.081Z,70.26
2019-02-14T17:36:58.846Z,70.95
2019-02-14T17:41:06.733Z,70.69
2019-02-14T17:45:15.082Z,70.54
2019-02-14T17:49:22.888Z,70.11
2019-02-14T17:53:30.817Z,70.76
2019-02-14T17:57:39.839Z,70.25
2019-02-14T18:01:47.544Z,70.36
2019-02-14T18:05:55.487Z,71.11
2019-02-14T18:10:03.887Z,71.26
2019-02-14T18:14:11.491Z,71.32
2019-02-14T18:18:19.422Z,71.77
2019-02-14T18:22:27.073Z,72.04
2019-02-14T18:26:36.674Z,73.03
2019-02-14T18:30:44.562Z,72.59
2019-02-14T18:34:52.308Z,72.17
2019-02-14T18:39:00.507Z,71.83
2019-02-14T18:43:09.821Z,71.56
2019-02-14T18:47:17.761Z,71.85
2019-02-14T18:51:25.367Z,72.45
2019-02-14T18:55:34.098Z,72.07
2019-02-14T18:59:42.122Z,71.60
2019-02-14T19:03:49.814Z,71.91
2019-02-14T19:07:58.500Z,71.86
2019-02-14T19:12:06.532Z,71.95
2019-02-14T19:16:14.781Z,71.87
2019-02-14T19:20:22.710Z,72.37
2019-02-14T19:24:30.457Z,72.61
2019-02-14T19:28:38.428Z,72.66
2019-02-14T19:32:46.231Z,72.81
2019-02-14T19:36:55.085Z,73.36
2019-02-14T19:41:03.504Z,73.60
2019-02-14T19:45:11.284Z,73.82
2019-02-14T19:49:19.440Z,74.05
2019-02-14T19:53:27.489Z,74.22
2019-02-14T19:57:35.161Z,74.36
2019-02-14T20:01:43.870Z,74.12
2019-02-14T20:05:53.318Z,74.62
2019-02-14T20:10:00.940Z,74.49
2019-02-14T20:14:08.831Z,73.89
2019-02-14T20:18:16.546Z,74.56
2019-02-14T20:22:25.424Z,73.91
2019-02-14T20:26:33.472Z,74.26
2019-02-14T20:30:42.729Z,74.40
2019-02-14T20:34:51.157Z,73.87
2019-02-14T20:38:58.971Z,74.43
2019-02-14T20:43:06.801Z,74.29
2019-02-14T20:47:14.688Z,74.68
2019-02-14T20:51:22.393Z,74.06
2019-02-14T20:55:30.718Z,74.01
2019-02-14T20:59:39.047Z,73.73
2019-02-14T21:03:47.071Z,73.77
2019-02-14T21:07:55.275Z,74.39
2019-02-14T21:12:03.581Z,74.45
2019-02-14T21:16:11.317Z,74.84
2019-02-14T21:20:19.135Z,74.66
2019-02-14T21:24:26.926Z,73.51
2019-02-14T21:28:34.668Z,74.60
2019-02-14T21:32:42.883Z,74.09
2019-02-14T21:36:51.533Z,74.04
2019-02-14T21:40:59.515Z,73.87
2019-02-14T21:45:08.919Z,74.46
2019-02-14T21:49:16.635Z,74.79
2019-02-14T21:53:24.447Z,74.94
2019-02-14T21:57:32.178Z,75.35
2019-02-14T22:01:39.992Z,75.27
2019-02-14T22:05:47.680Z,75.28
2019-02-14T22:09:55.286Z,75.30
2019-02-14T22:14:03.462Z,75.13
2019-02-14T22:18:12.723Z,75.38
2019-02-14T22:22:20.374Z,75.53
2019-02-14T22:26:29.080Z,75.70
2019-02-14T22:30:36.803Z,76.03
2019-02-14T22:34:44.608Z,76.08
2019-02-14T22:38:52.851Z,75.92
2019-02-14T22:43:00.742Z,76.17
2019-02-14T22:47:09.003Z,76.25
2019-02-14T22:51:16.766Z,76.28
2019-02-14T22:55:24.486Z,76.22
2019-02-14T22:59:32.297Z,76.16
2019-02-14T23:03:39.990Z,76.01
2019-02-14T23:07:47.613Z,75.93
2019-02-14T23:11:55.858Z,75.86
2019-02-14T23:16:03.931Z,75.78
2019-02-14T23:20:11.729Z,76.10
2019-02-14T23:24:19.691Z,76.11
2019-02-14T23:28:27.682Z,76.21
2019-02-14T23:32:36.604Z,76.47
2019-02-14T23:36:44.857Z,76.63
2019-02-14T23:40:52.733Z,76.48
2019-02-14T23:45:00.541Z,76.38
2019-02-14T23:49:08.777Z,76.34
2019-02-14T23:53:16.399Z,76.27
2019-02-14T23:57:24.376Z,76.33
